createdAt,value
2019-01-03T00:00:27.008Z,7.13
2019-01-03T00:03:19.258Z,6.87
2019-01-03T00:06:08.928Z,8.20
2019-01-03T00:08:54.407Z,6.77
2019-01-03T00:11:41.180Z,9.13
2019-01-03T00:14:29.925Z,8.70
2019-01-03T00:17:15.543Z,8.23
2019-01-03T00:20:00.793Z,4.10
2019-01-03T00:22:54.077Z,4.23
2019-01-03T00:25:43.077Z,4.50
2019-01-03T00:28:29.408Z,4.40
2019-01-03T00:31:10.969Z,4.23
2019-01-03T00:33:55.757Z,4.67
2019-01-03T00:36:41.957Z,5.20
2019-01-03T00:39:26.927Z,4.70
2019-01-03T00:42:22.806Z,6.00
2019-01-03T00:45:08.054Z,4.57
2019-01-03T00:48:02.307Z,3.93
2019-01-03T00:51:01.242Z,3.67
2019-01-03T00:53:46.326Z,3.70
2019-01-03T00:56:31.814Z,4.00
2019-01-03T00:59:21.309Z,4.73
2019-01-03T01:02:06.203Z,5.90
2019-01-03T01:04:52.356Z,4.67
2019-01-03T01:07:55.051Z,4.50
2019-01-03T01:10:53.515Z,3.90
2019-01-03T01:13:38.397Z,3.90
2019-01-03T01:16:27.857Z,4.50
2019-01-03T01:19:18.998Z,3.57
2019-01-03T01:22:04.253Z,3.77
2019-01-03T01:24:59.814Z,4.10
2019-01-03T01:27:46.169Z,4.40
2019-01-03T01:30:31.138Z,3.73
2019-01-03T01:33:23.871Z,3.50
2019-01-03T01:36:09.403Z,4.13
2019-01-03T01:38:57.187Z,3.73
2019-01-03T01:41:38.994Z,3.90
2019-01-03T01:44:34.639Z,3.83
2019-01-03T01:47:15.459Z,3.80
2019-01-03T01:50:01.479Z,4.23
2019-01-03T01:52:50.122Z,3.87
2019-01-03T01:55:36.548Z,3.73
2019-01-03T01:58:22.647Z,3.70
2019-01-03T02:01:18.644Z,3.83
2019-01-03T02:04:04.040Z,4.10
2019-01-03T02:06:49.000Z,3.77
2019-01-03T02:09:41.348Z,3.77
2019-01-03T02:12:26.540Z,4.63
2019-01-03T02:15:19.453Z,3.90
2019-01-03T02:18:14.872Z,3.50
2019-01-03T02:21:06.802Z,3.40
2019-01-03T02:24:11.297Z,3.43
2019-01-03T02:27:15.939Z,4.30
2019-01-03T02:30:00.913Z,3.40
2019-01-03T02:32:44.983Z,3.70
2019-01-03T02:35:30.503Z,3.50
2019-01-03T02:38:22.187Z,3.50
2019-01-03T02:41:11.568Z,3.87
2019-01-03T02:44:00.015Z,3.87
2019-01-03T02:46:53.351Z,3.60
2019-01-03T02:49:34.131Z,4.40
2019-01-03T02:52:20.470Z,3.60
2019-01-03T02:55:25.024Z,3.00
2019-01-03T02:58:11.383Z,3.20
2019-01-03T03:01:01.110Z,3.10
2019-01-03T03:03:46.306Z,4.27
2019-01-03T03:06:38.392Z,3.50
2019-01-03T03:09:27.742Z,3.27
2019-01-03T03:12:14.032Z,3.97
2019-01-03T03:15:13.002Z,4.30
2019-01-03T03:18:02.577Z,3.50
2019-01-03T03:20:41.950Z,3.10
2019-01-03T03:23:31.201Z,4.00
2019-01-03T03:26:16.070Z,3.70
2019-01-03T03:29:10.556Z,3.40
2019-01-03T03:32:01.344Z,3.60
2019-01-03T03:34:59.436Z,3.50
2019-01-03T03:37:41.451Z,3.80
2019-01-03T03:40:43.178Z,3.57
2019-01-03T03:43:36.053Z,3.80
2019-01-03T03:46:17.929Z,3.80
2019-01-03T03:49:04.280Z,3.57
2019-01-03T03:52:03.101Z,3.63
2019-01-03T03:54:52.916Z,4.40
2019-01-03T03:57:39.285Z,4.30
2019-01-03T04:00:25.651Z,3.53
2019-01-03T04:03:27.024Z,3.43
2019-01-03T04:06:11.922Z,3.73
2019-01-03T04:08:56.908Z,3.47
2019-01-03T04:11:55.540Z,3.67
2019-01-03T04:14:44.637Z,4.20
2019-01-03T04:17:36.525Z,3.83
2019-01-03T04:20:25.132Z,3.90
2019-01-03T04:23:14.483Z,3.63
2019-01-03T04:25:59.679Z,3.80
2019-01-03T04:28:43.994Z,4.13
2019-01-03T04:31:23.960Z,4.10
2019-01-03T04:34:09.153Z,3.60
2019-01-03T04:36:49.697Z,3.47
2019-01-03T04:39:34.792Z,4.07
2019-01-03T04:42:19.939Z,3.10
2019-01-03T04:45:00.405Z,3.77
2019-01-03T04:47:47.728Z,6.00
2019-01-03T04:50:32.696Z,3.70
2019-01-03T04:53:21.728Z,3.77
2019-01-03T04:56:09.483Z,4.10
2019-01-03T04:58:54.768Z,3.77
2019-01-03T05:02:05.822Z,3.47
2019-01-03T05:04:50.802Z,3.83
2019-01-03T05:07:37.753Z,3.80
2019-01-03T05:10:33.054Z,3.73
2019-01-03T05:13:19.532Z,3.80
2019-01-03T05:16:17.914Z,3.10
2019-01-03T05:19:16.327Z,3.30
2019-01-03T05:22:01.361Z,4.27
2019-01-03T05:24:51.473Z,3.70
2019-01-03T05:27:37.965Z,4.17
2019-01-03T05:30:31.167Z,4.13
2019-01-03T05:33:35.365Z,3.87
2019-01-03T05:36:23.448Z,4.30
2019-01-03T05:39:11.066Z,3.40
2019-01-03T05:42:15.767Z,3.50
2019-01-03T05:45:01.699Z,4.40
2019-01-03T05:47:46.433Z,5.07
2019-01-03T05:50:31.190Z,5.47
2019-01-03T05:53:16.174Z,4.40
2019-01-03T05:56:01.236Z,4.67
2019-01-03T05:58:45.476Z,4.13
2019-01-03T06:01:46.876Z,4.50
2019-01-03T06:04:32.267Z,4.80
2019-01-03T06:07:34.486Z,4.17
2019-01-03T06:10:14.220Z,4.50
2019-01-03T06:12:58.959Z,4.07
2019-01-03T06:15:51.302Z,4.40
2019-01-03T06:18:47.200Z,4.33
2019-01-03T06:21:48.680Z,3.80
2019-01-03T06:24:37.884Z,6.10
2019-01-03T06:27:22.805Z,3.83
2019-01-03T06:30:08.176Z,3.80
2019-01-03T06:32:53.017Z,3.97
2019-01-03T06:35:38.321Z,4.77
2019-01-03T06:38:36.964Z,5.27
2019-01-03T06:41:27.931Z,4.10
2019-01-03T06:44:13.705Z,4.70
2019-01-03T06:46:58.449Z,4.33
2019-01-03T06:49:44.773Z,3.80
2019-01-03T06:52:49.177Z,3.87
2019-01-03T06:55:47.497Z,4.23
2019-01-03T06:58:35.192Z,3.93
2019-01-03T07:01:27.975Z,5.43
2019-01-03T07:04:15.891Z,4.73
2019-01-03T07:07:12.643Z,4.50
2019-01-03T07:09:57.816Z,5.03
2019-01-03T07:12:44.169Z,4.57
2019-01-03T07:15:39.206Z,4.40
2019-01-03T07:18:20.385Z,4.80
2019-01-03T07:21:05.326Z,4.30
2019-01-03T07:23:50.296Z,4.40
2019-01-03T07:26:35.099Z,4.90
2019-01-03T07:29:20.274Z,4.33
2019-01-03T07:32:00.829Z,4.40
2019-01-03T07:35:02.360Z,5.10
2019-01-03T07:37:47.500Z,4.87
2019-01-03T07:40:27.183Z,3.83
2019-01-03T07:43:12.345Z,4.97
2019-01-03T07:45:54.170Z,4.90
2019-01-03T07:48:39.615Z,4.67
2019-01-03T07:51:44.239Z,4.70
2019-01-03T07:54:44.725Z,5.00
2019-01-03T07:57:34.594Z,3.90
2019-01-03T08:00:19.821Z,4.37
2019-01-03T08:03:04.916Z,4.53
2019-01-03T08:05:53.985Z,4.90
2019-01-03T08:08:39.570Z,4.70
2019-01-03T08:11:38.259Z,4.27
2019-01-03T08:14:24.238Z,3.60
2019-01-03T08:17:09.323Z,3.57
2019-01-03T08:20:10.753Z,3.30
2019-01-03T08:23:08.767Z,3.90
2019-01-03T08:25:49.197Z,4.20
2019-01-03T08:28:34.198Z,3.90
2019-01-03T08:31:19.202Z,4.30
2019-01-03T08:34:09.155Z,3.67
2019-01-03T08:37:01.455Z,3.77
2019-01-03T08:39:58.136Z,4.50
2019-01-03T08:42:48.912Z,5.10
2019-01-03T08:45:34.285Z,4.53
2019-01-03T08:48:19.586Z,4.27
2019-01-03T08:51:06.162Z,4.70
2019-01-03T08:53:51.229Z,5.60
2019-01-03T08:56:32.225Z,5.37
2019-01-03T08:59:19.811Z,6.97
2019-01-03T09:02:10.959Z,5.90
2019-01-03T09:05:03.113Z,6.83
2019-01-03T09:08:01.189Z,6.93
2019-01-03T09:10:47.754Z,5.40
2019-01-03T09:13:34.197Z,5.70
2019-01-03T09:16:14.398Z,6.10
2019-01-03T09:18:59.367Z,6.70
2019-01-03T09:21:52.117Z,6.33
2019-01-03T09:24:47.860Z,5.60
2019-01-03T09:27:40.592Z,7.33
2019-01-03T09:30:25.554Z,5.47
2019-01-03T09:33:14.983Z,5.50
2019-01-03T09:36:01.324Z,6.23
2019-01-03T09:38:46.897Z,5.17
2019-01-03T09:41:32.251Z,5.83
2019-01-03T09:44:19.090Z,5.63
2019-01-03T09:46:46.110Z,5.27
2019-01-03T09:49:12.968Z,5.00
2019-01-03T09:51:39.697Z,5.60
2019-01-03T09:54:06.624Z,6.07
2019-01-03T09:56:33.343Z,6.20
2019-01-03T09:59:01.749Z,6.00
2019-01-03T10:01:28.515Z,7.17
2019-01-03T10:03:55.374Z,7.10
2019-01-03T10:06:22.110Z,6.80
2019-01-03T10:08:48.973Z,7.30
2019-01-03T10:11:15.753Z,7.57
2019-01-03T10:13:42.492Z,6.20
2019-01-03T10:16:10.822Z,6.40
2019-01-03T10:18:38.020Z,6.30
2019-01-03T10:21:04.789Z,7.50
2019-01-03T10:23:31.921Z,6.43
2019-01-03T10:25:58.752Z,6.30
2019-01-03T10:28:25.552Z,7.90
2019-01-03T10:30:52.658Z,7.17
2019-01-03T10:33:20.728Z,6.33
2019-01-03T10:35:47.491Z,9.60
2019-01-03T10:38:14.245Z,7.87
2019-01-03T10:40:41.101Z,7.70
2019-01-03T10:43:07.840Z,7.87
2019-01-03T10:45:34.579Z,7.53
2019-01-03T10:48:01.297Z,7.23
2019-01-03T10:50:28.277Z,7.80
2019-01-03T10:52:54.978Z,7.93
2019-01-03T10:55:23.251Z,8.67
2019-01-03T10:57:50.128Z,11.37
2019-01-03T11:00:24.285Z,8.33
2019-01-03T11:02:51.074Z,7.70
2019-01-03T11:05:17.888Z,7.90
2019-01-03T11:07:45.556Z,8.27
2019-01-03T11:10:12.578Z,8.40
2019-01-03T11:12:39.520Z,7.77
2019-01-03T11:15:06.771Z,7.23
2019-01-03T11:17:36.231Z,7.23
2019-01-03T11:20:04.084Z,7.47
2019-01-03T11:22:30.758Z,7.40
2019-01-03T11:24:57.655Z,7.30
2019-01-03T11:27:25.623Z,8.47
2019-01-03T11:29:53.004Z,8.00
2019-01-03T11:32:19.756Z,7.77
2019-01-03T11:34:46.551Z,7.57
2019-01-03T11:37:13.263Z,8.13
2019-01-03T11:39:41.445Z,7.90
2019-01-03T11:42:08.147Z,7.90
2019-01-03T11:44:34.905Z,8.27
2019-01-03T11:47:01.635Z,7.23
2019-01-03T11:49:31.652Z,8.33
2019-01-03T11:51:58.514Z,8.40
2019-01-03T11:54:25.222Z,8.10
2019-01-03T11:56:54.652Z,7.87
2019-01-03T11:59:21.639Z,8.60
2019-01-03T12:01:48.843Z,9.97
2019-01-03T12:04:16.494Z,8.17
2019-01-03T12:06:43.257Z,7.20
2019-01-03T12:09:10.456Z,7.50
2019-01-03T12:11:37.597Z,9.43
2019-01-03T12:14:04.339Z,6.97
2019-01-03T12:16:31.188Z,6.73
2019-01-03T12:18:59.944Z,6.97
2019-01-03T12:21:26.866Z,6.77
2019-01-03T12:23:56.021Z,6.70
2019-01-03T12:26:22.753Z,6.67
2019-01-03T12:28:49.548Z,6.50
2019-01-03T12:31:16.325Z,8.53
2019-01-03T12:33:44.313Z,7.37
2019-01-03T12:36:11.448Z,9.20
2019-01-03T12:38:39.388Z,7.60
2019-01-03T12:41:06.391Z,7.27
2019-01-03T12:43:33.132Z,6.03
2019-01-03T12:45:59.941Z,5.93
2019-01-03T12:48:26.877Z,8.00
2019-01-03T12:50:53.595Z,6.90
2019-01-03T12:53:20.440Z,7.00
2019-01-03T12:55:48.296Z,7.40
2019-01-03T12:58:15.030Z,7.50
2019-01-03T13:00:42.269Z,6.80
2019-01-03T13:03:09.048Z,6.60
2019-01-03T13:05:35.916Z,8.33
2019-01-03T13:08:02.809Z,7.17
2019-01-03T13:10:29.563Z,6.33
2019-01-03T13:12:56.339Z,7.40
2019-01-03T13:15:23.102Z,7.10
2019-01-03T13:17:49.878Z,7.33
2019-01-03T13:20:16.585Z,7.10
2019-01-03T13:22:46.286Z,7.20
2019-01-03T13:25:13.044Z,6.70
2019-01-03T13:27:39.900Z,7.60
2019-01-03T13:30:08.484Z,6.60
2019-01-03T13:32:35.234Z,6.80
2019-01-03T13:35:01.979Z,6.37
2019-01-03T13:37:28.703Z,7.40
2019-01-03T13:39:57.443Z,7.20
2019-01-03T13:42:24.184Z,6.53
2019-01-03T13:44:51.036Z,7.73
2019-01-03T13:47:19.785Z,6.47
2019-01-03T13:49:47.336Z,6.33
2019-01-03T13:52:14.165Z,6.80
2019-01-03T13:54:41.184Z,7.60
2019-01-03T13:57:10.847Z,7.43
2019-01-03T13:59:41.106Z,6.60
2019-01-03T14:02:09.527Z,6.73
2019-01-03T14:04:36.265Z,6.03
2019-01-03T14:07:03.227Z,6.27
2019-01-03T14:09:29.955Z,7.37
2019-01-03T14:11:56.698Z,5.90
2019-01-03T14:14:23.529Z,6.90
2019-01-03T14:16:50.250Z,6.60
2019-01-03T14:19:17.375Z,5.77
2019-01-03T14:21:44.336Z,6.80
2019-01-03T14:24:11.197Z,6.30
2019-01-03T14:26:38.897Z,6.57
2019-01-03T14:29:05.763Z,6.90
2019-01-03T14:31:32.515Z,6.90
2019-01-03T14:33:59.354Z,6.40
2019-01-03T14:36:26.073Z,7.00
2019-01-03T14:38:55.140Z,7.33
2019-01-03T14:41:21.895Z,6.37
2019-01-03T14:43:48.772Z,7.00
2019-01-03T14:46:15.661Z,6.17
2019-01-03T14:48:42.521Z,6.80
2019-01-03T14:51:09.614Z,6.87
2019-01-03T14:53:36.624Z,6.77
2019-01-03T14:56:03.637Z,5.70
2019-01-03T14:58:30.786Z,6.37
2019-01-03T15:00:57.547Z,7.23
2019-01-03T15:03:24.302Z,8.17
2019-01-03T15:05:51.133Z,6.93
2019-01-03T15:08:18.122Z,6.73
2019-01-03T15:10:44.975Z,5.53
2019-01-03T15:13:12.108Z,5.90
2019-01-03T15:15:38.907Z,7.00
2019-01-03T15:18:08.058Z,6.40
2019-01-03T15:20:34.965Z,6.40
2019-01-03T15:23:01.710Z,5.53
2019-01-03T15:25:28.573Z,5.60
2019-01-03T15:27:55.443Z,6.67
2019-01-03T15:30:24.071Z,6.33
2019-01-03T15:32:50.809Z,5.63
2019-01-03T15:35:17.522Z,6.40
2019-01-03T15:37:44.248Z,7.33
2019-01-03T15:40:11.029Z,6.63
2019-01-03T15:42:37.831Z,7.13
2019-01-03T15:45:05.883Z,7.20
2019-01-03T15:47:32.606Z,7.73
2019-01-03T15:50:00.309Z,6.50
2019-01-03T15:52:27.184Z,7.70
2019-01-03T15:54:53.986Z,6.40
2019-01-03T15:57:24.054Z,6.83
2019-01-03T15:59:51.031Z,7.33
2019-01-03T16:02:17.904Z,6.07
2019-01-03T16:04:44.782Z,6.70
2019-01-03T16:07:11.523Z,6.33
2019-01-03T16:09:38.259Z,8.87
2019-01-03T16:12:05.089Z,6.53
2019-01-03T16:14:31.908Z,6.90
2019-01-03T16:16:58.693Z,6.93
2019-01-03T16:19:27.285Z,6.50
2019-01-03T16:21:54.200Z,6.77
2019-01-03T16:24:20.938Z,7.80
2019-01-03T16:26:47.786Z,7.93
2019-01-03T16:29:14.495Z,7.40
2019-01-03T16:31:41.308Z,6.70
2019-01-03T16:34:08.163Z,6.73
2019-01-03T16:36:34.951Z,8.23
2019-01-03T16:39:02.172Z,6.53
2019-01-03T16:41:29.179Z,6.73
2019-01-03T16:43:55.952Z,6.87
2019-01-03T16:46:24.006Z,6.90
2019-01-03T16:48:52.867Z,6.43
2019-01-03T16:51:19.965Z,5.80
2019-01-03T16:53:46.884Z,6.30
2019-01-03T16:56:14.058Z,6.13
2019-01-03T16:58:40.855Z,6.33
2019-01-03T17:01:07.801Z,6.03
2019-01-03T17:03:34.545Z,6.60
2019-01-03T17:06:01.288Z,6.80
2019-01-03T17:08:28.125Z,7.40
2019-01-03T17:10:56.947Z,6.10
2019-01-03T17:13:23.835Z,6.57
2019-01-03T17:15:50.795Z,6.87
2019-01-03T17:18:17.780Z,6.90
2019-01-03T17:20:44.702Z,7.00
2019-01-03T17:23:11.465Z,7.43
2019-01-03T17:25:38.275Z,7.87
2019-01-03T17:28:05.166Z,7.93
2019-01-03T17:30:33.252Z,7.50
2019-01-03T17:33:00.047Z,7.53
2019-01-03T17:35:26.935Z,7.33
2019-01-03T17:37:54.914Z,9.43
2019-01-03T17:40:21.735Z,8.50
2019-01-03T17:42:49.228Z,8.20
2019-01-03T17:45:15.971Z,7.37
2019-01-03T17:47:42.762Z,8.20
2019-01-03T17:50:09.992Z,8.70
2019-01-03T17:52:36.743Z,8.43
2019-01-03T17:55:04.112Z,8.10
2019-01-03T17:57:32.277Z,8.30
2019-01-03T17:59:59.055Z,7.60
2019-01-03T18:02:26.009Z,8.40
2019-01-03T18:04:53.068Z,7.77
2019-01-03T18:07:19.785Z,8.13
2019-01-03T18:09:46.697Z,7.03
2019-01-03T18:12:13.588Z,7.10
2019-01-03T18:14:41.521Z,8.17
2019-01-03T18:17:08.441Z,7.67
2019-01-03T18:19:35.742Z,6.57
2019-01-03T18:22:04.527Z,7.13
2019-01-03T18:24:31.287Z,8.37
2019-01-03T18:26:58.174Z,7.40
2019-01-03T18:29:26.247Z,8.03
2019-01-03T18:31:53.245Z,6.73
2019-01-03T18:34:21.302Z,6.30
2019-01-03T18:36:48.639Z,6.77
2019-01-03T18:39:15.629Z,7.30
2019-01-03T18:41:42.847Z,7.80
2019-01-03T18:44:10.147Z,7.73
2019-01-03T18:46:37.387Z,11.57
2019-01-03T18:49:04.139Z,10.00
2019-01-03T18:51:30.885Z,7.30
2019-01-03T18:53:57.892Z,7.20
2019-01-03T18:56:26.682Z,6.90
2019-01-03T18:58:53.459Z,6.63
2019-01-03T19:01:20.545Z,6.40
2019-01-03T19:03:47.950Z,7.90
2019-01-03T19:06:14.827Z,8.00
2019-01-03T19:08:41.707Z,8.77
2019-01-03T19:11:09.076Z,8.57
2019-01-03T19:13:35.919Z,8.10
2019-01-03T19:16:02.650Z,7.03
2019-01-03T19:18:29.506Z,7.43
2019-01-03T19:20:56.252Z,7.67
2019-01-03T19:23:23.192Z,8.00
2019-01-03T19:25:49.917Z,8.30
2019-01-03T19:28:17.608Z,7.13
2019-01-03T19:30:44.335Z,7.80
2019-01-03T19:33:11.135Z,7.83
2019-01-03T19:35:38.274Z,7.60
2019-01-03T19:38:05.250Z,6.77
2019-01-03T19:40:32.102Z,7.20
2019-01-03T19:42:58.877Z,7.33
2019-01-03T19:45:25.652Z,7.10
2019-01-03T19:47:52.632Z,6.40
2019-01-03T19:50:19.856Z,6.80
2019-01-03T19:52:46.589Z,7.60
2019-01-03T19:55:13.479Z,7.60
2019-01-03T19:57:40.507Z,7.50
2019-01-03T20:00:09.150Z,7.73
2019-01-03T20:02:36.015Z,7.50
2019-01-03T20:05:02.888Z,7.43
2019-01-03T20:07:29.696Z,7.77
2019-01-03T20:09:56.478Z,8.60
2019-01-03T20:12:23.427Z,6.93
2019-01-03T20:14:50.367Z,7.20
2019-01-03T20:17:17.106Z,7.00
2019-01-03T20:19:43.832Z,6.60
2019-01-03T20:22:10.894Z,6.47
2019-01-03T20:24:37.824Z,7.70
2019-01-03T20:27:04.734Z,8.90
2019-01-03T20:29:31.584Z,8.83
2019-01-03T20:31:58.596Z,9.23
2019-01-03T20:34:25.541Z,10.43
2019-01-03T20:36:52.741Z,14.60
2019-01-03T20:39:19.775Z,17.40
2019-01-03T20:41:46.582Z,9.73
2019-01-03T20:44:13.527Z,11.30
2019-01-03T20:46:40.257Z,8.87
2019-01-03T20:49:07.516Z,8.73
2019-01-03T20:51:34.836Z,11.13
2019-01-03T20:54:01.729Z,8.50
2019-01-03T20:56:28.701Z,8.70
2019-01-03T20:58:57.143Z,8.90
2019-01-03T21:01:24.133Z,8.73
2019-01-03T21:03:50.895Z,10.17
2019-01-03T21:06:19.831Z,8.23
2019-01-03T21:08:46.952Z,8.60
2019-01-03T21:11:13.950Z,8.90
2019-01-03T21:13:40.755Z,10.93
2019-01-03T21:16:08.215Z,9.63
2019-01-03T21:18:35.130Z,8.77
2019-01-03T21:21:02.329Z,9.03
2019-01-03T21:23:29.081Z,8.90
2019-01-03T21:25:55.855Z,8.63
2019-01-03T21:28:25.121Z,8.43
2019-01-03T21:30:51.929Z,8.13
2019-01-03T21:33:19.997Z,8.63
2019-01-03T21:35:47.010Z,9.23
2019-01-03T21:38:14.153Z,8.93
2019-01-03T21:40:41.130Z,9.60
2019-01-03T21:43:08.104Z,9.00
2019-01-03T21:45:34.995Z,8.60
2019-01-03T21:48:02.414Z,9.10
2019-01-03T21:50:30.049Z,8.57
2019-01-03T21:52:56.838Z,8.33
2019-01-03T21:55:23.688Z,8.53
2019-01-03T21:57:53.140Z,8.07
2019-01-03T22:00:19.964Z,8.57
2019-01-03T22:02:46.740Z,8.50
2019-01-03T22:05:13.879Z,8.40
2019-01-03T22:07:43.078Z,10.40
2019-01-03T22:10:10.208Z,8.30
2019-01-03T22:12:36.928Z,8.03
2019-01-03T22:15:05.089Z,7.70
2019-01-03T22:17:31.800Z,8.43
2019-01-03T22:19:58.574Z,10.37
2019-01-03T22:22:25.521Z,9.00
2019-01-03T22:24:52.282Z,9.13
2019-01-03T22:27:19.107Z,9.23
2019-01-03T22:29:46.523Z,8.43
2019-01-03T22:32:13.263Z,9.17
2019-01-03T22:34:39.990Z,8.97
2019-01-03T22:37:06.813Z,8.40
2019-01-03T22:39:33.574Z,8.80
2019-01-03T22:42:00.297Z,8.97
2019-01-03T22:44:27.252Z,6.87
2019-01-03T22:46:54.126Z,6.93
2019-01-03T22:49:20.904Z,7.20
2019-01-03T22:51:47.825Z,6.33
2019-01-03T22:54:14.679Z,7.10
2019-01-03T22:56:41.422Z,7.47
2019-01-03T22:59:10.883Z,7.70
2019-01-03T23:01:37.898Z,7.30
2019-01-03T23:04:05.063Z,7.53
2019-01-03T23:06:33.791Z,8.63
2019-01-03T23:09:00.796Z,8.07
2019-01-03T23:11:27.524Z,8.07
2019-01-03T23:13:54.284Z,8.20
2019-01-03T23:16:21.266Z,8.93
2019-01-03T23:18:48.029Z,8.53
2019-01-03T23:21:14.878Z,8.63
2019-01-03T23:23:41.700Z,9.23
2019-01-03T23:26:08.516Z,10.70
2019-01-03T23:28:36.407Z,9.83
2019-01-03T23:31:05.980Z,9.70
2019-01-03T23:33:33.033Z,10.93
2019-01-03T23:35:59.769Z,9.80
2019-01-03T23:38:27.312Z,10.07
2019-01-03T23:40:55.921Z,10.80
2019-01-03T23:43:22.715Z,9.60
2019-01-03T23:45:49.718Z,10.80
2019-01-03T23:48:16.645Z,10.13
2019-01-03T23:50:43.423Z,9.40
2019-01-03T23:53:10.315Z,10.00
2019-01-03T23:55:50.105Z,10.50
2019-01-03T23:58:17.064Z,9.47
